Time;durP1;ratioP1;P1;durP2;ratioP2;P2;SDS_P1;SDS_P2;PMS_P1;PMS_P2;Temp;Humidity;BMP_temperature;BMP_pressure;BME280_temperature;BME280_humidity;BME280_pressure;Samples;Min_cycle;Max_cycle;Signal;HPM_P1;HPM_P2
2023/07/16 00:00:50;;;;;;;12.30;8.75;;;;;;;;;;5009933;28;20226;-67
2023/07/16 00:03:15;;;;;;;13.73;8.50;;;;;;;;;;5010413;28;20206;-67
2023/07/16 00:05:40;;;;;;;10.93;8.00;;;;;;;;;;5011000;28;20195;-67
2023/07/16 00:08:06;;;;;;;13.30;8.32;;;;;;;;;;5010078;28;20279;-67
2023/07/16 00:10:35;;;;;;;12.52;7.70;;;;;;;;;;5011036;28;20210;-67
2023/07/16 00:13:01;;;;;;;13.48;8.15;;;;;;;;;;5005808;28;20195;-67
2023/07/16 00:15:26;;;;;;;11.45;7.75;;;;;;;;;;5008798;28;20245;-68
2023/07/16 00:17:52;;;;;;;10.73;8.02;;;;;;;;;;5003023;28;20277;-68
2023/07/16 00:20:17;;;;;;;14.43;7.40;;;;;;;;;;5001896;28;20191;-68
2023/07/16 00:22:43;;;;;;;14.05;8.90;;;;;;;;;;5005570;28;20222;-68
2023/07/16 00:25:08;;;;;;;13.57;9.10;;;;;;;;;;5002953;28;20195;-68
2023/07/16 00:27:33;;;;;;;14.88;9.77;;;;;;;;;;5003554;28;20270;-68
2023/07/16 00:29:59;;;;;;;12.00;8.65;;;;;;;;;;5011744;28;20198;-70
2023/07/16 00:32:24;;;;;;;13.05;8.13;;;;;;;;;;5005000;28;20232;-70
2023/07/16 00:34:50;;;;;;;11.00;8.23;;;;;;;;;;5010291;28;20286;-68
2023/07/16 00:37:15;;;;;;;14.07;8.57;;;;;;;;;;5001054;28;20194;-68
2023/07/16 00:39:41;;;;;;;11.40;8.82;;;;;;;;;;5003306;28;20205;-68
2023/07/16 00:42:06;;;;;;;14.70;9.50;;;;;;;;;;5007362;28;20625;-68
2023/07/16 00:44:31;;;;;;;15.13;9.52;;;;;;;;;;5004707;28;20206;-68
2023/07/16 00:46:57;;;;;;;13.10;9.07;;;;;;;;;;4997356;28;20574;-68
2023/07/16 00:49:23;;;;;;;19.25;10.13;;;;;;;;;;5011072;28;20206;-68
2023/07/16 00:51:51;;;;;;;16.60;9.63;;;;;;;;;;5010923;28;20893;-67
2023/07/16 00:54:16;;;;;;;18.02;9.45;;;;;;;;;;5008748;28;20194;-68
2023/07/16 00:56:41;;;;;;;12.50;7.78;;;;;;;;;;5002591;28;20194;-68
2023/07/16 00:59:07;;;;;;;13.30;7.28;;;;;;;;;;5009184;28;20199;-68
2023/07/16 01:01:32;;;;;;;10.20;6.22;;;;;;;;;;5011107;28;20257;-67
2023/07/16 01:03:58;;;;;;;12.60;6.47;;;;;;;;;;5011139;28;20190;-68
2023/07/16 01:06:33;;;;;;;10.32;6.53;;;;;;;;;;4992639;28;20741;-68
2023/07/16 01:09:06;;;;;;;10.75;6.03;;;;;;;;;;5010126;28;20288;-68
2023/07/16 01:11:35;;;;;;;14.68;7.18;;;;;;;;;;5002283;28;20666;-67
2023/07/16 01:14:01;;;;;;;10.30;6.93;;;;;;;;;;5003794;28;20249;-68
2023/07/16 01:16:27;;;;;;;9.77;6.63;;;;;;;;;;5010313;28;20219;-67
2023/07/16 01:18:53;;;;;;;8.50;5.68;;;;;;;;;;5008800;28;20688;-68
2023/07/16 01:21:21;;;;;;;11.13;6.93;;;;;;;;;;5006072;28;20258;-67
2023/07/16 01:24:10;;;;;;;12.98;6.50;;;;;;;;;;5003990;28;20191;-69
2023/07/16 01:27:07;;;;;;;13.02;6.38;;;;;;;;;;5007586;28;20238;-68
2023/07/16 01:29:42;;;;;;;13.48;5.70;;;;;;;;;;4987617;28;20249;-67
2023/07/16 01:32:11;;;;;;;11.80;5.85;;;;;;;;;;4995547;28;20296;-67
2023/07/16 01:34:38;;;;;;;15.23;5.47;;;;;;;;;;5004034;28;20187;-67
2023/07/16 01:37:04;;;;;;;10.52;5.15;;;;;;;;;;4995958;28;20217;-67
2023/07/16 01:39:30;;;;;;;12.60;5.47;;;;;;;;;;4995498;28;20239;-67
2023/07/16 01:41:56;;;;;;;13.35;5.38;;;;;;;;;;5005333;28;20273;-68
2023/07/16 01:44:22;;;;;;;12.27;6.20;;;;;;;;;;5005327;28;20286;-67
2023/07/16 01:47:01;;;;;;;17.88;5.82;;;;;;;;;;5004499;28;20214;-69
2023/07/16 01:49:27;;;;;;;10.52;6.15;;;;;;;;;;5007575;28;20190;-68
2023/07/16 01:51:52;;;;;;;11.63;5.90;;;;;;;;;;5018327;28;20191;-68
2023/07/16 01:54:17;;;;;;;13.35;6.90;;;;;;;;;;5010611;28;20202;-67
2023/07/16 01:56:43;;;;;;;12.10;6.85;;;;;;;;;;5012346;28;20268;-67
2023/07/16 01:59:08;;;;;;;14.93;6.65;;;;;;;;;;5006436;28;20265;-67
2023/07/16 02:01:33;;;;;;;14.20;7.32;;;;;;;;;;5015812;28;20288;-67
2023/07/16 02:03:59;;;;;;;15.30;7.10;;;;;;;;;;5013437;28;20201;-67
2023/07/16 02:06:24;;;;;;;13.95;7.05;;;;;;;;;;5011256;28;20221;-67
2023/07/16 02:08:50;;;;;;;12.13;6.78;;;;;;;;;;5004428;28;20193;-67
2023/07/16 02:11:15;;;;;;;10.50;6.82;;;;;;;;;;4997011;28;20190;-68
2023/07/16 02:13:40;;;;;;;16.30;7.75;;;;;;;;;;5005742;28;20190;-68
2023/07/16 02:16:06;;;;;;;13.05;6.53;;;;;;;;;;5016002;28;20269;-68
2023/07/16 02:18:31;;;;;;;11.02;8.13;;;;;;;;;;5008940;28;20214;-68
2023/07/16 02:20:57;;;;;;;16.63;8.40;;;;;;;;;;5017900;28;20186;-68
2023/07/16 02:23:22;;;;;;;13.18;8.02;;;;;;;;;;5007586;28;20684;-67
2023/07/16 02:25:47;;;;;;;12.68;7.50;;;;;;;;;;5009698;28;20249;-68
2023/07/16 02:28:13;;;;;;;9.00;6.32;;;;;;;;;;5008464;28;20313;-67
2023/07/16 02:30:40;;;;;;;12.32;6.50;;;;;;;;;;5010307;28;20221;-68
2023/07/16 02:33:06;;;;;;;14.90;6.85;;;;;;;;;;5014675;28;20195;-69
2023/07/16 02:35:31;;;;;;;11.27;6.50;;;;;;;;;;5016299;28;20253;-67
2023/07/16 02:37:56;;;;;;;10.40;6.35;;;;;;;;;;5013133;28;20193;-68
2023/07/16 02:40:22;;;;;;;13.32;5.70;;;;;;;;;;5015041;28;20558;-71
2023/07/16 02:42:47;;;;;;;14.35;5.88;;;;;;;;;;5010422;28;20292;-68
2023/07/16 02:45:12;;;;;;;15.82;5.80;;;;;;;;;;5012403;28;20200;-67
2023/07/16 02:47:38;;;;;;;10.27;5.90;;;;;;;;;;5017171;28;20677;-68
2023/07/16 02:50:04;;;;;;;13.43;6.97;;;;;;;;;;5020292;28;20198;-67
2023/07/16 02:52:29;;;;;;;10.75;5.38;;;;;;;;;;5006631;28;20195;-68
2023/07/16 02:54:54;;;;;;;8.50;5.22;;;;;;;;;;5016208;28;20273;-68
2023/07/16 02:57:21;;;;;;;13.07;5.13;;;;;;;;;;5014975;28;20213;-67
2023/07/16 02:59:46;;;;;;;10.52;4.75;;;;;;;;;;5000202;28;20191;-68
2023/07/16 03:02:12;;;;;;;14.57;4.57;;;;;;;;;;5007460;28;20252;-70
2023/07/16 03:04:37;;;;;;;10.77;4.25;;;;;;;;;;4995894;28;20680;-67
2023/07/16 03:07:03;;;;;;;10.55;4.05;;;;;;;;;;5002207;28;20217;-67
2023/07/16 03:09:28;;;;;;;12.35;4.18;;;;;;;;;;5022522;28;20202;-68
2023/07/16 03:11:53;;;;;;;13.80;4.63;;;;;;;;;;5011006;28;20206;-67
2023/07/16 03:14:19;;;;;;;14.52;4.53;;;;;;;;;;4996949;28;20190;-67
2023/07/16 03:16:44;;;;;;;10.50;4.38;;;;;;;;;;5008364;28;20207;-66
2023/07/16 03:19:10;;;;;;;12.23;3.88;;;;;;;;;;5012422;28;20201;-69
2023/07/16 03:21:35;;;;;;;13.93;4.53;;;;;;;;;;5015550;28;20273;-70
2023/07/16 03:24:00;;;;;;;12.10;3.97;;;;;;;;;;5012532;28;20237;-68
2023/07/16 03:26:26;;;;;;;13.38;4.60;;;;;;;;;;5008716;28;20333;-68
2023/07/16 03:28:51;;;;;;;15.27;4.40;;;;;;;;;;5012099;28;20685;-68
2023/07/16 03:31:16;;;;;;;12.52;3.70;;;;;;;;;;5006840;28;20222;-68
2023/07/16 03:33:42;;;;;;;10.65;3.75;;;;;;;;;;5012273;28;20201;-68
2023/07/16 03:36:07;;;;;;;12.07;4.05;;;;;;;;;;5004876;28;22797;-68
2023/07/16 03:38:33;;;;;;;9.93;4.20;;;;;;;;;;5003324;28;20206;-68
2023/07/16 03:40:58;;;;;;;11.07;4.13;;;;;;;;;;5007485;28;20228;-69
2023/07/16 03:43:23;;;;;;;10.77;4.18;;;;;;;;;;5003853;28;20278;-68
2023/07/16 03:45:49;;;;;;;12.30;4.35;;;;;;;;;;5014074;28;20622;-68
2023/07/16 03:48:14;;;;;;;10.60;4.18;;;;;;;;;;5008045;28;20206;-68
2023/07/16 03:50:40;;;;;;;10.90;4.20;;;;;;;;;;5014839;28;20634;-68
2023/07/16 03:53:05;;;;;;;8.93;3.85;;;;;;;;;;5007046;28;20199;-68
2023/07/16 03:55:31;;;;;;;11.02;4.55;;;;;;;;;;5005566;28;20661;-68
2023/07/16 03:57:56;;;;;;;9.43;4.05;;;;;;;;;;5017198;28;20273;-68
2023/07/16 04:00:22;;;;;;;13.40;4.90;;;;;;;;;;5011769;28;20247;-68
2023/07/16 04:02:47;;;;;;;15.85;4.47;;;;;;;;;;5006203;28;20190;-68
2023/07/16 04:05:13;;;;;;;10.10;3.83;;;;;;;;;;5010987;28;21117;-68
2023/07/16 04:07:38;;;;;;;11.45;4.43;;;;;;;;;;5010739;28;20222;-69
2023/07/16 04:10:04;;;;;;;11.27;3.92;;;;;;;;;;5011640;28;20213;-69
2023/07/16 04:12:29;;;;;;;10.23;4.28;;;;;;;;;;5010470;28;20222;-68
2023/07/16 04:14:57;;;;;;;11.63;4.55;;;;;;;;;;5010206;28;20234;-68
2023/07/16 04:17:23;;;;;;;8.98;3.97;;;;;;;;;;5009791;28;20202;-69
2023/07/16 04:19:48;;;;;;;12.43;4.45;;;;;;;;;;5010934;28;20638;-69
2023/07/16 04:22:14;;;;;;;9.05;4.30;;;;;;;;;;5007036;28;20275;-68
2023/07/16 04:24:39;;;;;;;12.05;4.30;;;;;;;;;;5009964;28;20660;-69
2023/07/16 04:27:05;;;;;;;9.90;4.03;;;;;;;;;;5010891;28;20280;-69
2023/07/16 04:29:30;;;;;;;10.27;4.40;;;;;;;;;;5015904;28;20186;-69
2023/07/16 04:31:56;;;;;;;14.73;4.40;;;;;;;;;;5002146;28;20187;-68
2023/07/16 04:34:21;;;;;;;10.32;4.00;;;;;;;;;;5001635;28;20222;-69
2023/07/16 04:36:46;;;;;;;8.32;4.53;;;;;;;;;;5010065;28;20202;-68
2023/07/16 04:39:12;;;;;;;11.93;3.97;;;;;;;;;;5003960;28;20248;-68
2023/07/16 04:41:37;;;;;;;11.63;3.75;;;;;;;;;;5010388;28;20225;-70
2023/07/16 04:44:03;;;;;;;7.90;3.47;;;;;;;;;;5010588;28;20194;-72
2023/07/16 04:46:30;;;;;;;8.65;3.42;;;;;;;;;;5009867;28;20298;-69
2023/07/16 04:48:55;;;;;;;6.57;3.50;;;;;;;;;;5007358;28;20187;-68
2023/07/16 04:51:20;;;;;;;8.95;3.63;;;;;;;;;;5008572;28;20199;-68
2023/07/16 04:53:46;;;;;;;9.52;3.90;;;;;;;;;;5010061;28;20191;-71
2023/07/16 04:56:12;;;;;;;9.80;3.65;;;;;;;;;;5008714;28;20638;-68
2023/07/16 04:58:38;;;;;;;7.95;3.33;;;;;;;;;;5002255;28;20646;-70
2023/07/16 05:01:03;;;;;;;12.13;4.47;;;;;;;;;;4996075;28;20279;-68
2023/07/16 05:03:29;;;;;;;7.63;3.80;;;;;;;;;;5004671;28;20674;-67
2023/07/16 05:05:54;;;;;;;10.15;3.97;;;;;;;;;;4992854;28;20565;-68
2023/07/16 05:08:19;;;;;;;12.82;4.43;;;;;;;;;;5006535;28;20277;-70
2023/07/16 05:10:45;;;;;;;10.32;4.07;;;;;;;;;;5000634;28;20205;-69
2023/07/16 05:13:10;;;;;;;10.70;3.95;;;;;;;;;;5018080;28;20193;-70
2023/07/16 05:15:37;;;;;;;10.73;4.70;;;;;;;;;;5009892;28;20182;-71
2023/07/16 05:18:02;;;;;;;9.90;4.05;;;;;;;;;;5010369;28;20285;-69
2023/07/16 05:20:28;;;;;;;6.65;3.60;;;;;;;;;;4995508;28;20203;-71
2023/07/16 05:22:53;;;;;;;8.93;4.35;;;;;;;;;;4996190;28;20665;-70
2023/07/16 05:25:18;;;;;;;14.55;4.57;;;;;;;;;;4999036;28;20191;-72
2023/07/16 05:27:44;;;;;;;13.30;4.60;;;;;;;;;;5001313;28;20231;-72
2023/07/16 05:30:09;;;;;;;11.05;4.82;;;;;;;;;;5004680;28;20201;-70
2023/07/16 05:32:35;;;;;;;10.85;4.30;;;;;;;;;;5008447;28;20704;-72
2023/07/16 05:35:00;;;;;;;15.88;4.60;;;;;;;;;;5004625;28;20212;-71
2023/07/16 05:37:26;;;;;;;8.93;4.47;;;;;;;;;;5001701;28;20344;-69
2023/07/16 05:39:52;;;;;;;12.43;4.38;;;;;;;;;;5004530;28;20686;-69
2023/07/16 05:42:17;;;;;;;9.52;4.20;;;;;;;;;;5010693;28;20344;-70
2023/07/16 05:44:44;;;;;;;11.52;4.68;;;;;;;;;;5005663;28;20183;-70
2023/07/16 05:47:10;;;;;;;11.00;4.90;;;;;;;;;;5008514;28;20214;-69
2023/07/16 05:49:35;;;;;;;11.00;4.97;;;;;;;;;;5008586;28;20555;-69
2023/07/16 05:52:00;;;;;;;9.48;5.22;;;;;;;;;;5008503;28;20530;-72
2023/07/16 05:54:26;;;;;;;14.63;5.38;;;;;;;;;;5005234;28;20186;-70
2023/07/16 05:56:51;;;;;;;10.48;4.80;;;;;;;;;;5003642;28;20191;-69
2023/07/16 05:59:17;;;;;;;9.52;4.50;;;;;;;;;;4997733;28;20564;-72
2023/07/16 06:01:42;;;;;;;11.55;5.05;;;;;;;;;;5009256;28;20245;-69
2023/07/16 06:04:07;;;;;;;13.55;5.30;;;;;;;;;;5006869;28;20209;-70
2023/07/16 06:06:33;;;;;;;9.35;4.75;;;;;;;;;;5008957;28;20268;-69
2023/07/16 06:08:58;;;;;;;11.30;4.55;;;;;;;;;;5010805;28;20665;-69
2023/07/16 06:11:23;;;;;;;10.93;5.00;;;;;;;;;;5001413;28;20198;-68
2023/07/16 06:13:49;;;;;;;9.10;4.57;;;;;;;;;;5003618;28;20562;-71
2023/07/16 06:16:14;;;;;;;11.98;5.13;;;;;;;;;;4999294;28;20270;-71
2023/07/16 06:18:40;;;;;;;10.48;4.78;;;;;;;;;;4999862;28;20213;-68
2023/07/16 06:21:05;;;;;;;11.63;5.32;;;;;;;;;;4997242;28;20735;-72
2023/07/16 06:23:31;;;;;;;11.02;5.30;;;;;;;;;;4997946;28;20198;-72
2023/07/16 06:25:56;;;;;;;11.02;5.07;;;;;;;;;;5002538;28;20196;-69
2023/07/16 06:28:22;;;;;;;9.88;5.25;;;;;;;;;;5000026;28;20191;-72
2023/07/16 06:30:48;;;;;;;10.85;4.85;;;;;;;;;;5006884;28;20564;-71
2023/07/16 06:33:13;;;;;;;12.68;5.45;;;;;;;;;;5006056;28;20302;-71
2023/07/16 06:35:39;;;;;;;11.93;4.93;;;;;;;;;;5012098;28;20198;-71
2023/07/16 06:38:04;;;;;;;12.88;5.45;;;;;;;;;;5011137;28;20585;-71
2023/07/16 06:40:30;;;;;;;11.23;5.00;;;;;;;;;;5002892;28;20233;-70
2023/07/16 06:42:56;;;;;;;8.23;4.88;;;;;;;;;;5006437;28;20183;-70
2023/07/16 06:45:21;;;;;;;14.60;5.50;;;;;;;;;;5010492;28;20208;-71
2023/07/16 06:47:48;;;;;;;10.43;5.75;;;;;;;;;;4998670;28;20238;-70
2023/07/16 06:50:13;;;;;;;10.60;5.47;;;;;;;;;;5003187;28;20226;-70
2023/07/16 06:52:38;;;;;;;13.32;5.75;;;;;;;;;;4997477;28;20229;-72
2023/07/16 06:55:04;;;;;;;16.10;5.93;;;;;;;;;;5011475;28;20272;-70
2023/07/16 06:57:30;;;;;;;11.52;6.05;;;;;;;;;;5010134;28;20187;-71
2023/07/16 06:59:55;;;;;;;11.52;5.63;;;;;;;;;;5011905;28;20191;-69
2023/07/16 07:02:20;;;;;;;14.20;5.70;;;;;;;;;;4975980;28;20277;-71
2023/07/16 07:04:46;;;;;;;12.50;5.60;;;;;;;;;;5009049;28;20198;-72
2023/07/16 07:07:11;;;;;;;16.10;5.50;;;;;;;;;;5005909;28;20554;-68
2023/07/16 07:09:37;;;;;;;12.68;5.30;;;;;;;;;;4992844;28;20280;-69
2023/07/16 07:12:02;;;;;;;10.57;5.35;;;;;;;;;;5007338;28;20675;-69
2023/07/16 07:14:28;;;;;;;11.95;5.50;;;;;;;;;;5003443;28;20198;-69
2023/07/16 07:16:53;;;;;;;11.32;5.78;;;;;;;;;;5000001;28;20207;-72
2023/07/16 07:19:19;;;;;;;12.40;5.22;;;;;;;;;;5010487;28;20187;-71
2023/07/16 07:21:44;;;;;;;15.48;6.18;;;;;;;;;;5022805;28;20219;-71
2023/07/16 07:24:09;;;;;;;13.93;5.05;;;;;;;;;;5004885;28;20195;-71
2023/07/16 07:26:35;;;;;;;13.02;5.28;;;;;;;;;;5010961;28;20317;-68
2023/07/16 07:29:00;;;;;;;12.32;5.53;;;;;;;;;;5007365;28;20199;-71
2023/07/16 07:31:26;;;;;;;10.43;5.25;;;;;;;;;;5007658;28;20275;-72
2023/07/16 07:33:53;;;;;;;13.73;5.40;;;;;;;;;;5004119;28;20195;-68
2023/07/16 07:36:19;;;;;;;11.48;5.13;;;;;;;;;;5000159;28;20288;-67
2023/07/16 07:38:44;;;;;;;13.73;5.68;;;;;;;;;;5001664;28;20194;-72
2023/07/16 07:41:09;;;;;;;10.82;5.40;;;;;;;;;;5004958;28;20184;-73
2023/07/16 07:43:35;;;;;;;10.80;5.68;;;;;;;;;;4974491;28;20696;-72
2023/07/16 07:46:00;;;;;;;13.20;5.28;;;;;;;;;;5005294;28;20190;-74
2023/07/16 07:48:25;;;;;;;14.27;5.80;;;;;;;;;;4986375;28;20244;-72
2023/07/16 07:50:51;;;;;;;9.82;5.43;;;;;;;;;;4998449;28;20614;-72
2023/07/16 07:53:18;;;;;;;12.60;4.95;;;;;;;;;;5005756;28;20226;-70
2023/07/16 07:55:44;;;;;;;12.35;5.00;;;;;;;;;;5006463;28;20185;-70
2023/07/16 07:58:09;;;;;;;17.98;5.40;;;;;;;;;;4997261;28;20559;-71
2023/07/16 08:00:35;;;;;;;10.60;5.30;;;;;;;;;;4996357;28;20253;-70
2023/07/16 08:03:00;;;;;;;12.75;5.22;;;;;;;;;;5003344;28;20194;-73
2023/07/16 08:05:25;;;;;;;13.43;5.68;;;;;;;;;;5009962;28;20198;-72
2023/07/16 08:07:52;;;;;;;12.23;4.90;;;;;;;;;;5012234;28;20238;-69
2023/07/16 08:10:17;;;;;;;9.93;5.03;;;;;;;;;;5005340;28;20194;-71
2023/07/16 08:12:42;;;;;;;12.15;5.13;;;;;;;;;;5006361;28;20245;-71
2023/07/16 08:15:13;;;;;;;7.13;4.97;;;;;;;;;;4997022;28;20634;-71
2023/07/16 08:17:40;;;;;;;11.10;5.00;;;;;;;;;;5008031;28;20564;-73
2023/07/16 08:20:06;;;;;;;12.20;5.28;;;;;;;;;;5016130;28;20201;-68
2023/07/16 08:22:32;;;;;;;10.45;5.30;;;;;;;;;;4999326;28;20230;-72
2023/07/16 08:24:57;;;;;;;13.30;5.85;;;;;;;;;;5010780;28;20269;-72
2023/07/16 08:27:23;;;;;;;13.00;5.03;;;;;;;;;;4999723;28;20243;-71
2023/07/16 08:29:48;;;;;;;10.68;4.57;;;;;;;;;;5008689;28;20190;-72
2023/07/16 08:32:13;;;;;;;12.48;5.22;;;;;;;;;;4990524;28;20225;-71
2023/07/16 08:34:39;;;;;;;10.88;5.35;;;;;;;;;;5002699;28;20214;-71
2023/07/16 08:37:04;;;;;;;9.35;4.75;;;;;;;;;;5003325;28;20559;-71
2023/07/16 08:39:31;;;;;;;9.65;4.93;;;;;;;;;;5003059;28;20191;-71
2023/07/16 08:41:57;;;;;;;9.65;5.00;;;;;;;;;;4996362;28;20198;-74
2023/07/16 08:44:23;;;;;;;9.52;5.07;;;;;;;;;;5004819;28;20263;-72
2023/07/16 08:46:50;;;;;;;13.32;5.65;;;;;;;;;;4996662;28;20892;-71
2023/07/16 08:49:18;;;;;;;10.00;4.60;;;;;;;;;;5003575;28;20183;-74
2023/07/16 08:51:48;;;;;;;7.40;4.53;;;;;;;;;;4997898;28;20241;-74
2023/07/16 08:54:18;;;;;;;9.95;4.93;;;;;;;;;;5008238;28;20191;-70
2023/07/16 08:56:45;;;;;;;11.30;5.03;;;;;;;;;;5000065;28;20193;-68
2023/07/16 08:59:10;;;;;;;9.60;4.90;;;;;;;;;;5009606;28;20233;-71
2023/07/16 09:01:37;;;;;;;11.60;4.88;;;;;;;;;;5001151;28;20191;-72
2023/07/16 09:04:03;;;;;;;7.82;5.15;;;;;;;;;;5004577;28;20246;-68
2023/07/16 09:06:28;;;;;;;12.73;5.18;;;;;;;;;;4996130;28;20302;-68
2023/07/16 09:08:55;;;;;;;9.63;4.93;;;;;;;;;;4993548;28;20558;-69
2023/07/16 09:11:21;;;;;;;8.48;4.80;;;;;;;;;;4994213;28;20222;-69
2023/07/16 09:13:47;;;;;;;15.05;6.20;;;;;;;;;;4998225;28;20199;-71
2023/07/16 09:16:16;;;;;;;10.27;5.30;;;;;;;;;;4958939;28;20183;-69
2023/07/16 09:18:42;;;;;;;11.68;5.75;;;;;;;;;;4998007;28;20198;-69
2023/07/16 09:21:07;;;;;;;11.45;5.75;;;;;;;;;;5009923;28;20187;-69
2023/07/16 09:23:33;;;;;;;13.40;5.80;;;;;;;;;;4997227;28;20334;-68
2023/07/16 09:25:59;;;;;;;8.80;5.03;;;;;;;;;;5012098;28;20204;-69
2023/07/16 09:28:24;;;;;;;8.32;4.72;;;;;;;;;;5010656;28;20270;-69
2023/07/16 09:30:51;;;;;;;11.00;5.25;;;;;;;;;;5011863;28;20194;-70
2023/07/16 09:33:22;;;;;;;15.48;5.38;;;;;;;;;;5003431;28;20198;-70
2023/07/16 09:35:49;;;;;;;11.10;5.13;;;;;;;;;;4998311;28;20188;-69
2023/07/16 09:38:15;;;;;;;11.57;4.55;;;;;;;;;;5018001;28;20179;-70
2023/07/16 09:40:42;;;;;;;10.23;4.65;;;;;;;;;;5010803;28;20218;-69
2023/07/16 09:43:08;;;;;;;8.93;5.05;;;;;;;;;;5011775;28;20210;-71
2023/07/16 09:45:34;;;;;;;9.57;4.75;;;;;;;;;;5006608;28;20209;-69
2023/07/16 09:47:59;;;;;;;9.25;4.88;;;;;;;;;;4991294;28;20234;-68
2023/07/16 09:50:29;;;;;;;12.68;5.05;;;;;;;;;;5007625;28;20202;-72
2023/07/16 09:52:56;;;;;;;9.02;5.00;;;;;;;;;;4997062;28;20188;-69
2023/07/16 09:55:22;;;;;;;12.00;5.10;;;;;;;;;;4994633;28;20253;-70
2023/07/16 09:57:49;;;;;;;9.40;5.30;;;;;;;;;;5002931;28;20186;-73
2023/07/16 10:00:16;;;;;;;7.82;4.57;;;;;;;;;;4992444;28;20837;-72
2023/07/16 10:02:42;;;;;;;9.15;4.90;;;;;;;;;;4996763;28;20187;-69
2023/07/16 10:05:31;;;;;;;10.38;5.65;;;;;;;;;;5000046;28;20206;-72
2023/07/16 10:07:59;;;;;;;8.80;4.97;;;;;;;;;;4993215;28;20264;-72
2023/07/16 10:10:46;;;;;;;13.50;5.47;;;;;;;;;;5002847;28;20199;-72
2023/07/16 10:13:12;;;;;;;9.50;5.15;;;;;;;;;;4997139;28;20663;-72
2023/07/16 10:15:38;;;;;;;7.63;4.47;;;;;;;;;;5003003;28;20183;-70
2023/07/16 10:18:04;;;;;;;8.80;4.75;;;;;;;;;;5011492;28;20207;-71
2023/07/16 10:20:34;;;;;;;9.77;5.15;;;;;;;;;;5013928;28;20194;-72
2023/07/16 10:23:12;;;;;;;8.30;3.90;;;;;;;;;;5011286;28;20197;-73
2023/07/16 10:25:37;;;;;;;9.27;4.57;;;;;;;;;;5004764;28;20195;-72
2023/07/16 10:28:03;;;;;;;11.95;4.57;;;;;;;;;;5009102;28;20280;-73
2023/07/16 10:30:28;;;;;;;9.32;4.40;;;;;;;;;;5006494;28;20277;-72
2023/07/16 10:32:54;;;;;;;8.20;4.50;;;;;;;;;;4997729;28;20214;-69
2023/07/16 10:35:19;;;;;;;7.30;4.30;;;;;;;;;;5009814;28;20274;-71
2023/07/16 10:37:45;;;;;;;10.43;4.60;;;;;;;;;;5003406;28;20659;-68
2023/07/16 10:40:12;;;;;;;8.38;4.75;;;;;;;;;;5012932;28;20195;-68
2023/07/16 10:42:37;;;;;;;10.25;4.95;;;;;;;;;;5005334;28;20183;-69
2023/07/16 10:45:06;;;;;;;11.77;4.50;;;;;;;;;;5014558;28;20199;-72
2023/07/16 10:47:33;;;;;;;9.00;4.82;;;;;;;;;;5012421;28;20604;-72
2023/07/16 10:49:59;;;;;;;13.02;4.53;;;;;;;;;;5018356;28;20194;-70
2023/07/16 10:52:24;;;;;;;10.00;4.65;;;;;;;;;;4999076;28;20195;-69
2023/07/16 10:54:54;;;;;;;8.85;4.53;;;;;;;;;;5013405;28;20186;-71
2023/07/16 10:57:20;;;;;;;9.57;4.95;;;;;;;;;;4999681;28;20210;-71
2023/07/16 10:59:47;;;;;;;7.50;4.47;;;;;;;;;;5007390;28;20211;-71
2023/07/16 11:02:14;;;;;;;10.18;4.65;;;;;;;;;;5006009;28;20217;-71
2023/07/16 11:04:40;;;;;;;10.07;4.53;;;;;;;;;;4999399;28;20273;-72
2023/07/16 11:07:08;;;;;;;10.93;4.40;;;;;;;;;;5002268;28;20290;-68
2023/07/16 11:09:33;;;;;;;9.48;4.63;;;;;;;;;;5000023;28;20183;-71
2023/07/16 11:12:08;;;;;;;8.48;4.22;;;;;;;;;;5002761;28;20186;-73
2023/07/16 11:14:34;;;;;;;9.40;5.15;;;;;;;;;;5004825;28;20190;-72
2023/07/16 11:17:10;;;;;;;8.00;4.18;;;;;;;;;;5005407;28;20273;-72
2023/07/16 11:19:37;;;;;;;6.72;4.35;;;;;;;;;;5006966;28;20195;-72
2023/07/16 11:22:04;;;;;;;9.07;4.38;;;;;;;;;;5001388;28;20241;-73
2023/07/16 11:24:56;;;;;;;7.28;4.35;;;;;;;;;;5009376;28;20205;-71
2023/07/16 11:27:24;;;;;;;11.85;5.10;;;;;;;;;;5001470;28;20241;-71
2023/07/16 11:29:57;;;;;;;6.97;4.40;;;;;;;;;;5010350;28;20198;-72
2023/07/16 11:32:33;;;;;;;8.07;4.47;;;;;;;;;;5004064;28;20190;-72
2023/07/16 11:35:00;;;;;;;9.93;4.63;;;;;;;;;;4995569;28;20198;-72
2023/07/16 11:37:27;;;;;;;9.38;4.47;;;;;;;;;;5001244;28;20650;-72
2023/07/16 11:39:57;;;;;;;9.30;4.60;;;;;;;;;;4985453;28;20198;-71
2023/07/16 11:42:33;;;;;;;9.85;4.97;;;;;;;;;;5007188;28;20226;-72
2023/07/16 11:44:59;;;;;;;6.72;4.35;;;;;;;;;;5002558;28;20179;-70
2023/07/16 11:47:25;;;;;;;8.40;4.22;;;;;;;;;;5000953;28;20665;-69
2023/07/16 11:49:50;;;;;;;9.65;4.45;;;;;;;;;;4997926;28;20188;-72
2023/07/16 11:52:34;;;;;;;9.73;4.88;;;;;;;;;;4995964;28;20557;-69
2023/07/16 11:55:00;;;;;;;9.32;5.00;;;;;;;;;;5003341;28;20662;-70
2023/07/16 11:57:25;;;;;;;10.00;4.75;;;;;;;;;;5011271;28;20209;-69
2023/07/16 11:59:50;;;;;;;9.90;4.43;;;;;;;;;;5003393;28;20216;-71
2023/07/16 12:02:16;;;;;;;9.13;4.20;;;;;;;;;;4999470;28;20430;-69
2023/07/16 12:04:41;;;;;;;10.93;3.92;;;;;;;;;;5008657;28;20807;-71
2023/07/16 12:07:07;;;;;;;12.32;4.03;;;;;;;;;;5009205;28;20268;-68
2023/07/16 12:09:33;;;;;;;8.05;4.47;;;;;;;;;;5007697;28;20187;-72
2023/07/16 12:11:59;;;;;;;8.57;3.70;;;;;;;;;;5003991;28;20190;-69
2023/07/16 12:14:24;;;;;;;6.07;4.00;;;;;;;;;;5004580;28;20277;-70
2023/07/16 12:16:50;;;;;;;8.43;3.72;;;;;;;;;;5002038;28;20297;-69
2023/07/16 12:19:15;;;;;;;9.25;3.85;;;;;;;;;;4999820;28;20194;-69
2023/07/16 12:21:41;;;;;;;6.63;3.80;;;;;;;;;;5009474;28;20349;-69
2023/07/16 12:24:06;;;;;;;4.40;3.40;;;;;;;;;;5003022;28;20730;-69
2023/07/16 12:26:31;;;;;;;7.00;3.60;;;;;;;;;;5005290;28;20241;-69
2023/07/16 12:28:57;;;;;;;9.60;3.70;;;;;;;;;;5005673;28;20205;-71
2023/07/16 12:31:22;;;;;;;6.95;3.47;;;;;;;;;;4994298;28;20677;-71
2023/07/16 12:33:48;;;;;;;7.80;3.20;;;;;;;;;;5001511;28;20191;-72
2023/07/16 12:36:14;;;;;;;7.03;3.80;;;;;;;;;;5009268;28;20248;-70
2023/07/16 12:38:40;;;;;;;7.07;3.55;;;;;;;;;;5001316;28;20183;-70
2023/07/16 12:41:06;;;;;;;6.45;3.38;;;;;;;;;;5003229;28;20187;-70
2023/07/16 12:43:33;;;;;;;6.97;3.58;;;;;;;;;;4995347;28;20183;-71
2023/07/16 12:46:03;;;;;;;6.78;3.25;;;;;;;;;;5003605;28;20191;-72
2023/07/16 12:48:29;;;;;;;6.20;3.67;;;;;;;;;;5013201;28;20215;-71
2023/07/16 12:50:55;;;;;;;6.40;3.85;;;;;;;;;;5009230;28;20226;-71
2023/07/16 12:53:20;;;;;;;6.75;3.60;;;;;;;;;;5003736;28;20646;-70
2023/07/16 12:55:46;;;;;;;8.90;3.60;;;;;;;;;;5007603;28;20195;-71
2023/07/16 12:58:11;;;;;;;10.35;4.20;;;;;;;;;;4985637;28;20194;-71
2023/07/16 13:00:36;;;;;;;8.52;4.10;;;;;;;;;;5007498;28;20265;-72
2023/07/16 13:03:02;;;;;;;8.05;3.50;;;;;;;;;;4994262;28;20197;-68
2023/07/16 13:05:28;;;;;;;11.35;4.40;;;;;;;;;;4994195;28;20194;-72
2023/07/16 13:07:53;;;;;;;8.95;4.15;;;;;;;;;;4655885;28;10000087;-69
2023/07/16 13:10:18;;;;;;;10.35;4.07;;;;;;;;;;5001830;28;20836;-71
2023/07/16 13:12:44;;;;;;;9.48;4.55;;;;;;;;;;4995851;28;20199;-69
2023/07/16 13:15:09;;;;;;;9.18;4.30;;;;;;;;;;4995260;28;20191;-68
2023/07/16 13:17:36;;;;;;;9.80;4.38;;;;;;;;;;5002019;28;20207;-68
2023/07/16 13:20:03;;;;;;;10.90;5.63;;;;;;;;;;5004932;28;20186;-72
2023/07/16 13:22:28;;;;;;;8.73;4.10;;;;;;;;;;5003238;28;20823;-68
2023/07/16 13:24:53;;;;;;;6.20;4.43;;;;;;;;;;5007595;28;20191;-71
2023/07/16 13:27:22;;;;;;;6.75;3.88;;;;;;;;;;5005654;28;20805;-68
2023/07/16 13:29:47;;;;;;;7.82;4.88;;;;;;;;;;5002349;28;20199;-69
2023/07/16 13:32:12;;;;;;;9.25;4.63;;;;;;;;;;5005081;28;20186;-70
2023/07/16 13:34:38;;;;;;;8.13;4.25;;;;;;;;;;5000151;28;20205;-69
2023/07/16 13:37:03;;;;;;;8.10;4.63;;;;;;;;;;5006574;28;20194;-70
2023/07/16 13:39:29;;;;;;;9.10;4.18;;;;;;;;;;5007139;28;20537;-68
2023/07/16 13:41:54;;;;;;;6.35;4.47;;;;;;;;;;5004985;28;20203;-67
2023/07/16 13:44:19;;;;;;;8.30;3.92;;;;;;;;;;5006795;28;20226;-72
2023/07/16 13:46:45;;;;;;;9.65;4.40;;;;;;;;;;5005649;28;20214;-71
2023/07/16 13:49:10;;;;;;;6.70;4.55;;;;;;;;;;4988823;28;20512;-70
2023/07/16 13:51:36;;;;;;;9.55;4.82;;;;;;;;;;4990067;28;20226;-72
2023/07/16 13:54:01;;;;;;;8.95;4.47;;;;;;;;;;5000330;28;20187;-70
2023/07/16 13:56:26;;;;;;;7.90;4.43;;;;;;;;;;5004150;28;20658;-71
2023/07/16 13:58:53;;;;;;;8.70;3.97;;;;;;;;;;5004685;28;20214;-68
2023/07/16 14:01:19;;;;;;;9.65;4.35;;;;;;;;;;5004931;28;20198;-70
2023/07/16 14:03:44;;;;;;;7.78;3.83;;;;;;;;;;4999160;28;20187;-70
2023/07/16 14:06:10;;;;;;;9.07;4.57;;;;;;;;;;5004174;28;20198;-68
2023/07/16 14:08:35;;;;;;;7.45;4.03;;;;;;;;;;5006391;28;20337;-69
2023/07/16 14:11:02;;;;;;;8.05;4.30;;;;;;;;;;5006702;28;20186;-71
2023/07/16 14:13:28;;;;;;;7.85;3.88;;;;;;;;;;5002905;28;20295;-70
2023/07/16 14:15:53;;;;;;;6.50;4.35;;;;;;;;;;5006444;28;20308;-72
2023/07/16 14:18:18;;;;;;;6.72;4.30;;;;;;;;;;5002751;28;20626;-70
2023/07/16 14:20:44;;;;;;;9.80;4.50;;;;;;;;;;4987282;28;20202;-71
2023/07/16 14:23:09;;;;;;;6.10;4.40;;;;;;;;;;5003900;28;20195;-71
2023/07/16 14:25:34;;;;;;;10.68;4.38;;;;;;;;;;4996338;28;20195;-70
2023/07/16 14:28:00;;;;;;;5.97;3.90;;;;;;;;;;5003967;28;20300;-72
2023/07/16 14:30:25;;;;;;;8.43;4.05;;;;;;;;;;5003772;28;20210;-72